sensor_id;sensor_type;location;lat;lon;timestamp;pressure;altitude;pressure_sealevel;temperature;humidity
35798;BME280;21918;49.940;7.774;2023-07-09T12:00:54;99029.03;;;35.98;29.72
35798;BME280;21918;49.940;7.774;2023-07-09T12:03:24;99021.63;;;36.12;29.27
35798;BME280;21918;49.940;7.774;2023-07-09T12:05:55;99013.47;;;36.25;29.49
35798;BME280;21918;49.940;7.774;2023-07-09T12:08:28;99009.34;;;36.26;29.13
35798;BME280;21918;49.940;7.774;2023-07-09T12:10:56;98998.69;;;36.17;29.36
35798;BME280;21918;49.940;7.774;2023-07-09T12:13:25;99003.16;;;36.18;29.97
35798;BME280;21918;49.940;7.774;2023-07-09T12:16:02;98996.88;;;36.34;29.25
35798;BME280;21918;49.940;7.774;2023-07-09T12:18:29;99001.09;;;36.53;30.01
35798;BME280;21918;49.940;7.774;2023-07-09T12:20:58;98994.19;;;36.80;28.47
35798;BME280;21918;49.940;7.774;2023-07-09T12:23:32;98988.69;;;36.82;28.35
35798;BME280;21918;49.940;7.774;2023-07-09T12:26:13;98984.22;;;36.81;28.09
35798;BME280;21918;49.940;7.774;2023-07-09T12:28:49;98974.38;;;36.93;27.11
35798;BME280;21918;49.940;7.774;2023-07-09T12:31:17;98979.81;;;37.05;26.82
35798;BME280;21918;49.940;7.774;2023-07-09T12:33:47;98971.38;;;37.02;27.40
35798;BME280;21918;49.940;7.774;2023-07-09T12:36:16;98976.19;;;36.90;27.75
35798;BME280;21918;49.940;7.774;2023-07-09T12:38:50;98969.91;;;36.92;26.83
35798;BME280;21918;49.940;7.774;2023-07-09T12:41:34;98967.97;;;36.83;27.00
35798;BME280;21918;49.940;7.774;2023-07-09T12:44:02;98962.00;;;36.87;27.20
35798;BME280;21918;49.940;7.774;2023-07-09T12:46:38;98956.56;;;36.94;27.12
35798;BME280;21918;49.940;7.774;2023-07-09T12:49:20;98960.31;;;37.00;27.04
35798;BME280;21918;49.940;7.774;2023-07-09T12:51:55;98943.09;;;37.11;26.58
35798;BME280;21918;49.940;7.774;2023-07-09T12:54:23;98946.94;;;37.23;26.19
35798;BME280;21918;49.940;7.774;2023-07-09T12:56:59;98943.00;;;37.20;26.46
35798;BME280;21918;49.940;7.774;2023-07-09T12:59:39;98948.06;;;37.25;26.92
35798;BME280;21918;49.940;7.774;2023-07-09T13:02:20;98942.34;;;37.31;26.77
35798;BME280;21918;49.940;7.774;2023-07-09T13:05:00;98934.72;;;37.33;25.56
35798;BME280;21918;49.940;7.774;2023-07-09T13:07:33;98938.22;;;37.17;26.45
35798;BME280;21918;49.940;7.774;2023-07-09T13:10:19;98928.75;;;37.17;26.44
35798;BME280;21918;49.940;7.774;2023-07-09T13:12:53;98930.53;;;37.34;26.45
35798;BME280;21918;49.940;7.774;2023-07-09T13:15:38;98925.84;;;37.37;26.17
35798;BME280;21918;49.940;7.774;2023-07-09T13:18:12;98924.09;;;37.45;26.40
35798;BME280;21918;49.940;7.774;2023-07-09T13:20:40;98926.16;;;37.44;26.20
35798;BME280;21918;49.940;7.774;2023-07-09T13:23:15;98924.38;;;37.47;26.47
35798;BME280;21918;49.940;7.774;2023-07-09T13:25:42;98923.56;;;37.46;26.59
35798;BME280;21918;49.940;7.774;2023-07-09T13:28:15;98924.47;;;37.32;26.36
35798;BME280;21918;49.940;7.774;2023-07-09T13:30:42;98923.94;;;37.28;26.48
35798;BME280;21918;49.940;7.774;2023-07-09T13:33:10;98919.47;;;37.33;26.71
35798;BME280;21918;49.940;7.774;2023-07-09T13:35:42;98924.59;;;37.43;26.72
35798;BME280;21918;49.940;7.774;2023-07-09T13:38:12;98913.94;;;37.55;26.71
35798;BME280;21918;49.940;7.774;2023-07-09T13:40:43;98921.81;;;37.54;27.05
35798;BME280;21918;49.940;7.774;2023-07-09T13:43:12;98921.34;;;37.61;26.18
35798;BME280;21918;49.940;7.774;2023-07-09T13:45:39;98916.88;;;37.60;26.77
35798;BME280;21918;49.940;7.774;2023-07-09T13:48:12;98906.28;;;37.52;26.57
35798;BME280;21918;49.940;7.774;2023-07-09T13:50:46;98907.63;;;37.56;26.23
35798;BME280;21918;49.940;7.774;2023-07-09T13:53:16;98905.31;;;37.60;26.97
35798;BME280;21918;49.940;7.774;2023-07-09T13:55:44;98909.50;;;37.59;26.77
35798;BME280;21918;49.940;7.774;2023-07-09T13:58:11;98904.50;;;37.60;26.59
35798;BME280;21918;49.940;7.774;2023-07-09T14:00:46;98906.00;;;37.50;26.60
35798;BME280;21918;49.940;7.774;2023-07-09T14:03:19;98901.81;;;37.51;26.13
35798;BME280;21918;49.940;7.774;2023-07-09T14:05:46;98911.69;;;37.64;25.12
35798;BME280;21918;49.940;7.774;2023-07-09T14:08:13;98910.66;;;37.67;25.17
35798;BME280;21918;49.940;7.774;2023-07-09T14:10:41;98894.53;;;37.61;25.39
35798;BME280;21918;49.940;7.774;2023-07-09T14:13:12;98897.91;;;37.54;25.80
35798;BME280;21918;49.940;7.774;2023-07-09T14:15:45;98894.88;;;37.43;26.16
35798;BME280;21918;49.940;7.774;2023-07-09T14:18:13;98900.44;;;37.46;25.83
35798;BME280;21918;49.940;7.774;2023-07-09T14:20:44;98906.00;;;37.50;26.12
35798;BME280;21918;49.940;7.774;2023-07-09T14:23:12;98902.84;;;37.48;26.06
35798;BME280;21918;49.940;7.774;2023-07-09T14:25:39;98901.81;;;37.51;26.88
35798;BME280;21918;49.940;7.774;2023-07-09T14:28:13;98902.38;;;37.55;26.33
35798;BME280;21918;49.940;7.774;2023-07-09T14:30:39;98907.13;;;37.58;26.00
35798;BME280;21918;49.940;7.774;2023-07-09T14:33:11;98894.66;;;37.46;26.17
35798;BME280;21918;49.940;7.774;2023-07-09T14:35:39;98897.78;;;37.43;25.93
35798;BME280;21918;49.940;7.774;2023-07-09T14:38:15;98889.06;;;37.37;25.84
35798;BME280;21918;49.940;7.774;2023-07-09T14:40:42;98894.88;;;37.43;26.46
35798;BME280;21918;49.940;7.774;2023-07-09T14:43:10;98900.91;;;37.39;26.72
35798;BME280;21918;49.940;7.774;2023-07-09T14:45:37;98897.72;;;37.37;27.18
35798;BME280;21918;49.940;7.774;2023-07-09T14:48:09;98895.03;;;37.28;26.87
35798;BME280;21918;49.940;7.774;2023-07-09T14:50:37;98896.56;;;37.24;26.71
35798;BME280;21918;49.940;7.774;2023-07-09T14:53:08;98892.81;;;37.18;26.61
35798;BME280;21918;49.940;7.774;2023-07-09T14:55:38;98889.81;;;37.12;26.64
35798;BME280;21918;49.940;7.774;2023-07-09T14:58:13;98898.38;;;37.01;26.96
35798;BME280;21918;49.940;7.774;2023-07-09T15:00:40;98902.53;;;37.00;26.85
35798;BME280;21918;49.940;7.774;2023-07-09T15:03:14;98908.50;;;36.91;26.91
35798;BME280;21918;49.940;7.774;2023-07-09T15:05:44;98898.97;;;36.85;27.16
35798;BME280;21918;49.940;7.774;2023-07-09T15:08:22;98898.03;;;36.74;27.22
35798;BME280;21918;49.940;7.774;2023-07-09T15:10:53;98905.72;;;36.62;27.34
35798;BME280;21918;49.940;7.774;2023-07-09T15:13:29;98921.59;;;36.52;27.54
35798;BME280;21918;49.940;7.774;2023-07-09T15:15:56;98956.16;;;36.47;28.01
35798;BME280;21918;49.940;7.774;2023-07-09T15:18:23;98997.56;;;36.44;27.33
35798;BME280;21918;49.940;7.774;2023-07-09T15:20:52;99012.50;;;36.28;27.67
35798;BME280;21918;49.940;7.774;2023-07-09T15:23:22;99035.78;;;36.10;27.63
35798;BME280;21918;49.940;7.774;2023-07-09T15:25:50;99024.75;;;35.94;28.08
35798;BME280;21918;49.940;7.774;2023-07-09T15:28:18;99047.97;;;35.75;28.73
35798;BME280;21918;49.940;7.774;2023-07-09T15:30:45;99050.53;;;35.59;31.57
35798;BME280;21918;49.940;7.774;2023-07-09T15:33:18;99020.59;;;35.18;35.64
35798;BME280;21918;49.940;7.774;2023-07-09T15:35:47;99026.28;;;34.80;38.75
35798;BME280;21918;49.940;7.774;2023-07-09T15:38:31;99042.31;;;34.31;42.37
35798;BME280;21918;49.940;7.774;2023-07-09T15:41:01;99039.66;;;34.18;43.42
35798;BME280;21918;49.940;7.774;2023-07-09T15:43:30;99032.38;;;33.81;43.63
35798;BME280;21918;49.940;7.774;2023-07-09T15:45:58;99041.66;;;33.58;44.85
35798;BME280;21918;49.940;7.774;2023-07-09T15:48:30;99029.69;;;33.32;45.46
35798;BME280;21918;49.940;7.774;2023-07-09T15:51:01;99024.44;;;33.13;45.90
35798;BME280;21918;49.940;7.774;2023-07-09T15:53:31;99005.44;;;32.97;46.15
35798;BME280;21918;49.940;7.774;2023-07-09T15:56:01;98989.63;;;32.84;46.21
35798;BME280;21918;49.940;7.774;2023-07-09T15:58:37;98986.88;;;32.71;46.38
35798;BME280;21918;49.940;7.774;2023-07-09T16:01:04;98981.47;;;32.73;46.49
35798;BME280;21918;49.940;7.774;2023-07-09T16:03:32;98977.31;;;32.74;45.93
35798;BME280;21918;49.940;7.774;2023-07-09T16:05:59;98966.97;;;32.77;46.00
35798;BME280;21918;49.940;7.774;2023-07-09T16:08:25;98958.19;;;32.71;46.26
35798;BME280;21918;49.940;7.774;2023-07-09T16:10:52;98957.69;;;32.64;46.37
35798;BME280;21918;49.940;7.774;2023-07-09T16:13:22;98957.69;;;32.55;46.21
35798;BME280;21918;49.940;7.774;2023-07-09T16:15:52;98945.72;;;32.47;46.13
35798;BME280;21918;49.940;7.774;2023-07-09T16:18:19;98939.66;;;32.45;45.86
35798;BME280;21918;49.940;7.774;2023-07-09T16:20:48;98936.16;;;32.41;45.85
35798;BME280;21918;49.940;7.774;2023-07-09T16:23:17;98927.72;;;32.38;46.26
35798;BME280;21918;49.940;7.774;2023-07-09T16:25:46;98928.97;;;32.37;46.01
35798;BME280;21918;49.940;7.774;2023-07-09T16:28:14;98931.53;;;32.35;45.60
35798;BME280;21918;49.940;7.774;2023-07-09T16:30:45;98926.44;;;32.39;45.73
35798;BME280;21918;49.940;7.774;2023-07-09T16:33:12;98925.66;;;32.47;45.57
35798;BME280;21918;49.940;7.774;2023-07-09T16:35:40;98913.88;;;32.54;45.27
35798;BME280;21918;49.940;7.774;2023-07-09T16:38:12;98913.25;;;32.50;45.97
35798;BME280;21918;49.940;7.774;2023-07-09T16:40:41;98913.06;;;32.45;46.24
35798;BME280;21918;49.940;7.774;2023-07-09T16:43:15;98920.22;;;32.40;46.04
35798;BME280;21918;49.940;7.774;2023-07-09T16:45:43;98927.25;;;32.48;45.94
35798;BME280;21918;49.940;7.774;2023-07-09T16:48:16;98919.28;;;32.43;46.17
35798;BME280;21918;49.940;7.774;2023-07-09T16:50:43;98923.59;;;32.48;45.91
35798;BME280;21918;49.940;7.774;2023-07-09T16:53:13;98919.78;;;32.51;45.76
35798;BME280;21918;49.940;7.774;2023-07-09T16:55:42;98921.50;;;32.48;45.79
35798;BME280;21918;49.940;7.774;2023-07-09T16:58:22;98919.28;;;32.43;46.16
35798;BME280;21918;49.940;7.774;2023-07-09T17:00:52;98911.47;;;32.53;46.02
35798;BME280;21918;49.940;7.774;2023-07-09T17:03:20;98915.63;;;32.52;45.76
35798;BME280;21918;49.940;7.774;2023-07-09T17:05:47;98920.41;;;32.55;45.83
35798;BME280;21918;49.940;7.774;2023-07-09T17:08:14;98918.81;;;32.54;45.51
35798;BME280;21918;49.940;7.774;2023-07-09T17:10:42;98914.34;;;32.53;45.59
35798;BME280;21918;49.940;7.774;2023-07-09T17:13:18;98919.78;;;32.51;45.87
35798;BME280;21918;49.940;7.774;2023-07-09T17:15:49;98919.78;;;32.60;45.94
35798;BME280;21918;49.940;7.774;2023-07-09T17:18:18;98906.38;;;32.57;45.93
35798;BME280;21918;49.940;7.774;2023-07-09T17:20:48;98900.19;;;32.49;46.01
35798;BME280;21918;49.940;7.774;2023-07-09T17:23:15;98900.50;;;32.42;45.72
35798;BME280;21918;49.940;7.774;2023-07-09T17:25:42;98901.44;;;32.39;45.23
35798;BME280;21918;49.940;7.774;2023-07-09T17:28:16;98888.81;;;32.37;44.93
35798;BME280;21918;49.940;7.774;2023-07-09T17:30:44;98888.03;;;32.45;44.61
35798;BME280;21918;49.940;7.774;2023-07-09T17:33:11;98889.47;;;32.50;44.53
35798;BME280;21918;49.940;7.774;2023-07-09T17:35:39;98891.56;;;32.49;44.48
35798;BME280;21918;49.940;7.774;2023-07-09T17:38:13;98887.91;;;32.49;44.36
35798;BME280;21918;49.940;7.774;2023-07-09T17:40:40;98895.84;;;32.54;44.65
35798;BME280;21918;49.940;7.774;2023-07-09T17:43:12;98898.41;;;32.52;44.91
35798;BME280;21918;49.940;7.774;2023-07-09T17:45:39;98888.53;;;32.53;45.23
35798;BME280;21918;49.940;7.774;2023-07-09T17:48:13;98890.13;;;32.54;45.28
35798;BME280;21918;49.940;7.774;2023-07-09T17:50:41;98877.56;;;32.60;45.34
35798;BME280;21918;49.940;7.774;2023-07-09T17:53:14;98875.16;;;32.59;45.47
35798;BME280;21918;49.940;7.774;2023-07-09T17:55:41;98885.97;;;32.64;45.46
35798;BME280;21918;49.940;7.774;2023-07-09T17:58:11;98883.75;;;32.59;45.35
35798;BME280;21918;49.940;7.774;2023-07-09T18:00:39;98883.59;;;32.53;45.38
35798;BME280;21918;49.940;7.774;2023-07-09T18:03:07;98893.50;;;32.52;45.74
35798;BME280;21918;49.940;7.774;2023-07-09T18:05:35;98901.94;;;32.56;45.70
35798;BME280;21918;49.940;7.774;2023-07-09T18:08:04;98893.19;;;32.59;45.92
35798;BME280;21918;49.940;7.774;2023-07-09T18:10:34;98899.69;;;32.60;46.01
35798;BME280;21918;49.940;7.774;2023-07-09T18:13:03;98884.09;;;32.61;45.79
35798;BME280;21918;49.940;7.774;2023-07-09T18:15:32;98889.84;;;32.61;45.97
35798;BME280;21918;49.940;7.774;2023-07-09T18:18:04;98881.84;;;32.56;45.80
35798;BME280;21918;49.940;7.774;2023-07-09T18:20:32;98888.69;;;32.58;45.97
35798;BME280;21918;49.940;7.774;2023-07-09T18:23:00;98889.16;;;32.57;45.98
35798;BME280;21918;49.940;7.774;2023-07-09T18:25:27;98886.00;;;32.55;45.83
35798;BME280;21918;49.940;7.774;2023-07-09T18:27:58;98889.47;;;32.50;46.25
35798;BME280;21918;49.940;7.774;2023-07-09T18:30:27;98896.84;;;32.51;46.22
35798;BME280;21918;49.940;7.774;2023-07-09T18:32:57;98889.19;;;32.48;46.17
35798;BME280;21918;49.940;7.774;2023-07-09T18:35:27;98884.69;;;32.47;46.15
35798;BME280;21918;49.940;7.774;2023-07-09T18:37:56;98886.78;;;32.46;45.91
35798;BME280;21918;49.940;7.774;2023-07-09T18:40:24;98895.06;;;32.44;45.84
35798;BME280;21918;49.940;7.774;2023-07-09T18:42:52;98889.03;;;32.42;45.78
35798;BME280;21918;49.940;7.774;2023-07-09T18:45:27;98887.56;;;32.38;46.09
35798;BME280;21918;49.940;7.774;2023-07-09T18:47:57;98880.22;;;32.37;45.59
35798;BME280;21918;49.940;7.774;2023-07-09T18:50:27;98891.38;;;32.35;45.51
35798;BME280;21918;49.940;7.774;2023-07-09T18:52:57;98898.88;;;32.32;45.28
35798;BME280;21918;49.940;7.774;2023-07-09T18:55:27;98891.97;;;32.30;45.62
35798;BME280;21918;49.940;7.774;2023-07-09T18:57:54;98887.19;;;32.27;45.82
35798;BME280;21918;49.940;7.774;2023-07-09T19:00:23;98888.94;;;32.24;45.46
35798;BME280;21918;49.940;7.774;2023-07-09T19:02:51;98893.09;;;32.23;45.78
35798;BME280;21918;49.940;7.774;2023-07-09T19:05:21;98884.16;;;32.21;45.35
35798;BME280;21918;49.940;7.774;2023-07-09T19:07:50;98875.25;;;32.19;45.46
35798;BME280;21918;49.940;7.774;2023-07-09T19:10:23;98883.22;;;32.15;45.43
35798;BME280;21918;49.940;7.774;2023-07-09T19:12:51;98890.34;;;32.11;45.64
35798;BME280;21918;49.940;7.774;2023-07-09T19:15:19;98885.56;;;32.08;45.28
35798;BME280;21918;49.940;7.774;2023-07-09T19:17:51;98884.41;;;31.96;45.54
35798;BME280;21918;49.940;7.774;2023-07-09T19:20:20;98885.22;;;31.97;45.35
35798;BME280;21918;49.940;7.774;2023-07-09T19:22:47;98895.06;;;31.96;45.33
35798;BME280;21918;49.940;7.774;2023-07-09T19:25:20;98886.31;;;31.90;45.60
35798;BME280;21918;49.940;7.774;2023-07-09T19:27:49;98883.91;;;31.89;45.43
35798;BME280;21918;49.940;7.774;2023-07-09T19:30:19;98890.28;;;31.84;45.54
35798;BME280;21918;49.940;7.774;2023-07-09T19:32:50;98885.09;;;31.79;45.31
35798;BME280;21918;49.940;7.774;2023-07-09T19:35:22;98893.41;;;31.77;45.32
35798;BME280;21918;49.940;7.774;2023-07-09T19:37:50;98898.13;;;31.71;44.94
35798;BME280;21918;49.940;7.774;2023-07-09T19:40:24;98905.28;;;31.66;45.36
35798;BME280;21918;49.940;7.774;2023-07-09T19:42:53;98904.63;;;31.62;45.14
35798;BME280;21918;49.940;7.774;2023-07-09T19:45:23;98903.81;;;31.62;45.46
35798;BME280;21918;49.940;7.774;2023-07-09T19:47:57;98902.22;;;31.61;45.10
35798;BME280;21918;49.940;7.774;2023-07-09T19:50:26;98906.50;;;31.56;44.86
35798;BME280;21918;49.940;7.774;2023-07-09T19:52:54;98907.59;;;31.50;44.75
35798;BME280;21918;49.940;7.774;2023-07-09T19:55:23;98915.97;;;31.44;45.32
35798;BME280;21918;49.940;7.774;2023-07-09T19:57:52;98908.66;;;31.43;45.39
35798;BME280;21918;49.940;7.774;2023-07-09T20:00:20;98913.25;;;31.40;44.78
35798;BME280;21918;49.940;7.774;2023-07-09T20:02:51;98920.38;;;31.36;45.29
35798;BME280;21918;49.940;7.774;2023-07-09T20:05:21;98923.50;;;31.29;45.07
35798;BME280;21918;49.940;7.774;2023-07-09T20:07:50;98927.31;;;31.26;45.08
35798;BME280;21918;49.940;7.774;2023-07-09T20:10:16;98928.22;;;31.23;45.04
35798;BME280;21918;49.940;7.774;2023-07-09T20:12:46;98927.88;;;31.21;45.24
35798;BME280;21918;49.940;7.774;2023-07-09T20:15:20;98937.06;;;31.16;45.27
35798;BME280;21918;49.940;7.774;2023-07-09T20:17:49;98936.25;;;31.15;45.48
35798;BME280;21918;49.940;7.774;2023-07-09T20:20:17;98947.38;;;31.13;45.10
35798;BME280;21918;49.940;7.774;2023-07-09T20:22:46;98950.81;;;31.08;44.97
35798;BME280;21918;49.940;7.774;2023-07-09T20:25:18;98947.75;;;31.03;45.41
35798;BME280;21918;49.940;7.774;2023-07-09T20:27:45;98954.28;;;31.03;45.49
35798;BME280;21918;49.940;7.774;2023-07-09T20:30:13;98943.31;;;31.02;45.13
35798;BME280;21918;49.940;7.774;2023-07-09T20:32:41;98951.09;;;31.01;45.70
35798;BME280;21918;49.940;7.774;2023-07-09T20:35:14;98942.31;;;30.96;45.63
35798;BME280;21918;49.940;7.774;2023-07-09T20:37:44;98945.97;;;30.96;45.59
35798;BME280;21918;49.940;7.774;2023-07-09T20:40:13;98934.19;;;30.94;45.48
35798;BME280;21918;49.940;7.774;2023-07-09T20:42:43;98929.06;;;30.89;44.80
35798;BME280;21918;49.940;7.774;2023-07-09T20:45:17;98929.34;;;30.82;45.02
35798;BME280;21918;49.940;7.774;2023-07-09T20:47:46;98929.66;;;30.84;44.93
35798;BME280;21918;49.940;7.774;2023-07-09T20:50:14;98928.88;;;30.84;45.02
35798;BME280;21918;49.940;7.774;2023-07-09T20:52:45;98934.41;;;30.78;44.73
35798;BME280;21918;49.940;7.774;2023-07-09T20:55:15;98928.31;;;30.76;44.82
35798;BME280;21918;49.940;7.774;2023-07-09T20:57:43;98938.97;;;30.76;44.80
35798;BME280;21918;49.940;7.774;2023-07-09T21:00:14;98943.16;;;30.71;44.70
35798;BME280;21918;49.940;7.774;2023-07-09T21:02:45;98953.94;;;30.67;44.94
35798;BME280;21918;49.940;7.774;2023-07-09T21:05:16;98958.88;;;30.67;44.80
35798;BME280;21918;49.940;7.774;2023-07-09T21:07:47;98962.66;;;30.64;44.47
35798;BME280;21918;49.940;7.774;2023-07-09T21:10:19;98965.97;;;30.62;44.83
35798;BME280;21918;49.940;7.774;2023-07-09T21:12:47;98962.31;;;30.62;44.69
35798;BME280;21918;49.940;7.774;2023-07-09T21:15:24;98966.69;;;30.54;44.82
35798;BME280;21918;49.940;7.774;2023-07-09T21:17:52;98967.00;;;30.56;44.58
35798;BME280;21918;49.940;7.774;2023-07-09T21:20:29;98970.78;;;30.53;44.54
35798;BME280;21918;49.940;7.774;2023-07-09T21:22:57;98967.59;;;30.51;44.92
35798;BME280;21918;49.940;7.774;2023-07-09T21:25:28;98978.22;;;30.50;44.64
35798;BME280;21918;49.940;7.774;2023-07-09T21:27:54;98988.06;;;30.49;44.90
35798;BME280;21918;49.940;7.774;2023-07-09T21:30:22;98989.00;;;30.46;44.40
35798;BME280;21918;49.940;7.774;2023-07-09T21:32:52;98991.19;;;30.42;44.83
35798;BME280;21918;49.940;7.774;2023-07-09T21:35:21;98990.81;;;30.40;44.71
35798;BME280;21918;49.940;7.774;2023-07-09T21:37:49;98991.75;;;30.37;44.71
35798;BME280;21918;49.940;7.774;2023-07-09T21:40:28;98999.06;;;30.26;44.86
35798;BME280;21918;49.940;7.774;2023-07-09T21:43:00;99012.19;;;30.36;44.65
35798;BME280;21918;49.940;7.774;2023-07-09T21:45:32;99012.66;;;30.34;44.95
35798;BME280;21918;49.940;7.774;2023-07-09T21:48:03;99005.81;;;30.32;44.68
35798;BME280;21918;49.940;7.774;2023-07-09T21:50:31;99013.25;;;30.29;44.83
35798;BME280;21918;49.940;7.774;2023-07-09T21:52:58;99013.72;;;30.28;44.55
35798;BME280;21918;49.940;7.774;2023-07-09T21:55:27;99027.19;;;30.27;45.09
35798;BME280;21918;49.940;7.774;2023-07-09T21:57:55;99015.88;;;30.24;45.09
35798;BME280;21918;49.940;7.774;2023-07-09T22:00:23;99013.59;;;30.19;45.16
35798;BME280;21918;49.940;7.774;2023-07-09T22:02:55;99019.31;;;30.19;45.48
35798;BME280;21918;49.940;7.774;2023-07-09T22:05:24;99015.06;;;30.11;45.45
35798;BME280;21918;49.940;7.774;2023-07-09T22:07:55;99013.56;;;30.06;45.18
35798;BME280;21918;49.940;7.774;2023-07-09T22:10:29;99028.75;;;30.03;45.67
35798;BME280;21918;49.940;7.774;2023-07-09T22:12:57;99013.56;;;30.06;45.54
35798;BME280;21918;49.940;7.774;2023-07-09T22:15:31;99023.41;;;30.05;45.49
35798;BME280;21918;49.940;7.774;2023-07-09T22:18:00;99023.03;;;30.03;45.09
35798;BME280;21918;49.940;7.774;2023-07-09T22:20:27;99030.03;;;30.02;45.16
35798;BME280;21918;49.940;7.774;2023-07-09T22:22:55;99028.75;;;30.03;45.25
35798;BME280;21918;49.940;7.774;2023-07-09T22:25:24;99035.28;;;30.04;45.30
35798;BME280;21918;49.940;7.774;2023-07-09T22:27:54;99040.53;;;30.05;45.45
35798;BME280;21918;49.940;7.774;2023-07-09T22:30:22;99031.16;;;30.05;45.31
35798;BME280;21918;49.940;7.774;2023-07-09T22:32:52;99029.56;;;30.04;45.51
35798;BME280;21918;49.940;7.774;2023-07-09T22:35:25;99030.13;;;29.99;45.32
35798;BME280;21918;49.940;7.774;2023-07-09T22:37:52;99031.84;;;29.96;45.24
35798;BME280;21918;49.940;7.774;2023-07-09T22:40:22;99023.84;;;29.91;45.30
35798;BME280;21918;49.940;7.774;2023-07-09T22:42:50;99016.19;;;29.88;45.61
35798;BME280;21918;49.940;7.774;2023-07-09T22:45:22;99023.03;;;29.91;45.40
35798;BME280;21918;49.940;7.774;2023-07-09T22:47:51;99019.16;;;29.97;45.28
35798;BME280;21918;49.940;7.774;2023-07-09T22:50:21;99019.03;;;30.01;45.12
35798;BME280;21918;49.940;7.774;2023-07-09T22:52:52;99021.44;;;30.02;45.17
35798;BME280;21918;49.940;7.774;2023-07-09T22:55:27;99023.94;;;30.00;45.24
35798;BME280;21918;49.940;7.774;2023-07-09T22:57:54;99021.44;;;30.02;45.43
35798;BME280;21918;49.940;7.774;2023-07-09T23:00:23;99019.84;;;30.01;45.27
35798;BME280;21918;49.940;7.774;2023-07-09T23:02:50;99021.53;;;29.99;45.39
35798;BME280;21918;49.940;7.774;2023-07-09T23:05:20;99016.66;;;29.99;45.58
35798;BME280;21918;49.940;7.774;2023-07-09T23:07:49;99023.94;;;30.00;45.44
35798;BME280;21918;49.940;7.774;2023-07-09T23:10:17;99018.59;;;30.02;45.52
35798;BME280;21918;49.940;7.774;2023-07-09T23:12:44;99023.84;;;30.04;45.48
35798;BME280;21918;49.940;7.774;2023-07-09T23:15:20;99025.56;;;30.01;45.39
35798;BME280;21918;49.940;7.774;2023-07-09T23:17:54;99015.38;;;30.00;45.54
35798;BME280;21918;49.940;7.774;2023-07-09T23:20:22;99022.59;;;30.05;45.34
35798;BME280;21918;49.940;7.774;2023-07-09T23:22:49;99024.75;;;30.01;45.42
35798;BME280;21918;49.940;7.774;2023-07-09T23:25:16;99027.16;;;30.02;45.46
35798;BME280;21918;49.940;7.774;2023-07-09T23:27:43;99021.53;;;29.99;45.23
35798;BME280;21918;49.940;7.774;2023-07-09T23:30:20;99022.81;;;29.85;45.71
35798;BME280;21918;49.940;7.774;2023-07-09T23:32:48;99015.72;;;29.90;45.46
35798;BME280;21918;49.940;7.774;2023-07-09T23:35:18;99018.13;;;29.91;45.32
35798;BME280;21918;49.940;7.774;2023-07-09T23:37:51;99026.69;;;29.91;45.14
35798;BME280;21918;49.940;7.774;2023-07-09T23:40:19;99020.19;;;29.91;45.46
35798;BME280;21918;49.940;7.774;2023-07-09T23:42:49;99020.19;;;29.91;45.46
35798;BME280;21918;49.940;7.774;2023-07-09T23:45:19;99019.81;;;29.89;45.42
35798;BME280;21918;49.940;7.774;2023-07-09T23:47:52;99015.38;;;29.88;45.25
35798;BME280;21918;49.940;7.774;2023-07-09T23:50:24;99018.22;;;29.88;45.26
35798;BME280;21918;49.940;7.774;2023-07-09T23:52:54;99016.63;;;29.87;45.28
35798;BME280;21918;49.940;7.774;2023-07-09T23:55:22;99015.81;;;29.86;45.16
35798;BME280;21918;49.940;7.774;2023-07-09T23:57:50;99012.97;;;29.86;45.31
